sensor_id;sensor_type;location;lat;lon;timestamp;P1;durP1;ratioP1;P2;durP2;ratioP2
40204;SDS011;26963;42.666;23.366;2024-03-08T00:01:35;10.20;;;7.50;;
40204;SDS011;26963;42.666;23.366;2024-03-08T00:04:01;10.02;;;7.38;;
40204;SDS011;26963;42.666;23.366;2024-03-08T00:06:26;10.90;;;7.07;;
40204;SDS011;26963;42.666;23.366;2024-03-08T00:08:52;11.52;;;7.80;;
40204;SDS011;26963;42.666;23.366;2024-03-08T00:11:18;8.60;;;6.55;;
40204;SDS011;26963;42.666;23.366;2024-03-08T00:13:43;8.65;;;6.55;;
40204;SDS011;26963;42.666;23.366;2024-03-08T00:16:10;12.35;;;6.70;;
40204;SDS011;26963;42.666;23.366;2024-03-08T00:18:35;9.20;;;6.32;;
40204;SDS011;26963;42.666;23.366;2024-03-08T00:21:01;10.57;;;7.60;;
40204;SDS011;26963;42.666;23.366;2024-03-08T00:23:28;8.77;;;6.30;;
40204;SDS011;26963;42.666;23.366;2024-03-08T00:25:53;10.32;;;6.75;;
40204;SDS011;26963;42.666;23.366;2024-03-08T00:28:20;8.35;;;6.47;;
40204;SDS011;26963;42.666;23.366;2024-03-08T00:30:46;8.60;;;6.68;;
40204;SDS011;26963;42.666;23.366;2024-03-08T00:33:12;7.78;;;5.80;;
40204;SDS011;26963;42.666;23.366;2024-03-08T00:35:38;7.05;;;5.32;;
40204;SDS011;26963;42.666;23.366;2024-03-08T00:38:03;8.98;;;6.13;;
40204;SDS011;26963;42.666;23.366;2024-03-08T00:40:29;9.57;;;6.68;;
40204;SDS011;26963;42.666;23.366;2024-03-08T00:42:54;10.63;;;6.55;;
40204;SDS011;26963;42.666;23.366;2024-03-08T00:45:20;10.60;;;6.80;;
40204;SDS011;26963;42.666;23.366;2024-03-08T00:47:45;9.10;;;6.68;;
40204;SDS011;26963;42.666;23.366;2024-03-08T00:50:11;8.07;;;5.65;;
40204;SDS011;26963;42.666;23.366;2024-03-08T00:52:38;8.25;;;5.35;;
40204;SDS011;26963;42.666;23.366;2024-03-08T00:55:03;6.30;;;4.75;;
40204;SDS011;26963;42.666;23.366;2024-03-08T00:57:29;6.72;;;4.95;;
40204;SDS011;26963;42.666;23.366;2024-03-08T00:59:55;7.05;;;4.82;;
40204;SDS011;26963;42.666;23.366;2024-03-08T01:02:21;8.05;;;5.15;;
40204;SDS011;26963;42.666;23.366;2024-03-08T01:04:48;7.13;;;4.78;;
40204;SDS011;26963;42.666;23.366;2024-03-08T01:07:14;6.00;;;4.60;;
40204;SDS011;26963;42.666;23.366;2024-03-08T01:09:39;6.65;;;3.88;;
40204;SDS011;26963;42.666;23.366;2024-03-08T01:12:05;3.55;;;2.70;;
40204;SDS011;26963;42.666;23.366;2024-03-08T01:14:33;4.45;;;2.72;;
40204;SDS011;26963;42.666;23.366;2024-03-08T01:16:59;3.72;;;2.65;;
40204;SDS011;26963;42.666;23.366;2024-03-08T01:19:24;2.88;;;2.13;;
40204;SDS011;26963;42.666;23.366;2024-03-08T01:21:50;3.25;;;2.40;;
40204;SDS011;26963;42.666;23.366;2024-03-08T01:24:16;4.00;;;2.40;;
40204;SDS011;26963;42.666;23.366;2024-03-08T01:26:42;3.30;;;2.00;;
40204;SDS011;26963;42.666;23.366;2024-03-08T01:29:07;3.22;;;2.20;;
40204;SDS011;26963;42.666;23.366;2024-03-08T01:31:33;3.67;;;2.40;;
40204;SDS011;26963;42.666;23.366;2024-03-08T01:33:59;4.53;;;2.40;;
40204;SDS011;26963;42.666;23.366;2024-03-08T01:36:25;4.18;;;2.95;;
40204;SDS011;26963;42.666;23.366;2024-03-08T01:38:51;3.95;;;2.55;;
40204;SDS011;26963;42.666;23.366;2024-03-08T01:41:17;2.97;;;2.20;;
40204;SDS011;26963;42.666;23.366;2024-03-08T01:43:43;3.55;;;2.15;;
40204;SDS011;26963;42.666;23.366;2024-03-08T01:46:10;3.53;;;2.50;;
40204;SDS011;26963;42.666;23.366;2024-03-08T01:48:41;5.32;;;2.95;;
40204;SDS011;26963;42.666;23.366;2024-03-08T01:51:07;3.95;;;2.90;;
40204;SDS011;26963;42.666;23.366;2024-03-08T01:53:33;5.38;;;2.97;;
40204;SDS011;26963;42.666;23.366;2024-03-08T01:56:00;3.88;;;2.60;;
40204;SDS011;26963;42.666;23.366;2024-03-08T01:58:28;3.90;;;2.78;;
40204;SDS011;26963;42.666;23.366;2024-03-08T02:00:58;3.65;;;2.70;;
40204;SDS011;26963;42.666;23.366;2024-03-08T02:03:24;3.30;;;2.50;;
40204;SDS011;26963;42.666;23.366;2024-03-08T02:05:50;2.95;;;2.28;;
40204;SDS011;26963;42.666;23.366;2024-03-08T02:08:16;3.35;;;2.40;;
40204;SDS011;26963;42.666;23.366;2024-03-08T02:10:46;4.40;;;2.67;;
40204;SDS011;26963;42.666;23.366;2024-03-08T02:13:12;3.10;;;2.25;;
40204;SDS011;26963;42.666;23.366;2024-03-08T02:18:20;5.72;;;2.90;;
40204;SDS011;26963;42.666;23.366;2024-03-08T02:20:47;3.20;;;2.25;;
40204;SDS011;26963;42.666;23.366;2024-03-08T02:23:18;5.10;;;2.60;;
40204;SDS011;26963;42.666;23.366;2024-03-08T02:25:45;3.45;;;2.67;;
40204;SDS011;26963;42.666;23.366;2024-03-08T02:28:11;3.67;;;2.63;;
40204;SDS011;26963;42.666;23.366;2024-03-08T02:30:38;3.22;;;2.13;;
40204;SDS011;26963;42.666;23.366;2024-03-08T02:33:07;5.35;;;2.63;;
40204;SDS011;26963;42.666;23.366;2024-03-08T02:35:34;4.53;;;2.30;;
40204;SDS011;26963;42.666;23.366;2024-03-08T02:38:00;3.05;;;2.10;;
40204;SDS011;26963;42.666;23.366;2024-03-08T02:40:28;5.57;;;2.20;;
40204;SDS011;26963;42.666;23.366;2024-03-08T02:42:54;3.67;;;2.70;;
40204;SDS011;26963;42.666;23.366;2024-03-08T02:45:20;3.08;;;1.80;;
40204;SDS011;26963;42.666;23.366;2024-03-08T02:47:45;1.98;;;1.55;;
40204;SDS011;26963;42.666;23.366;2024-03-08T02:50:11;2.53;;;1.90;;
40204;SDS011;26963;42.666;23.366;2024-03-08T02:52:41;2.88;;;1.90;;
40204;SDS011;26963;42.666;23.366;2024-03-08T02:55:07;2.60;;;1.80;;
40204;SDS011;26963;42.666;23.366;2024-03-08T02:57:36;3.88;;;1.83;;
40204;SDS011;26963;42.666;23.366;2024-03-08T03:00:02;2.72;;;1.80;;
40204;SDS011;26963;42.666;23.366;2024-03-08T03:02:29;2.25;;;1.80;;
40204;SDS011;26963;42.666;23.366;2024-03-08T03:04:54;4.45;;;1.83;;
40204;SDS011;26963;42.666;23.366;2024-03-08T03:07:21;3.97;;;2.30;;
40204;SDS011;26963;42.666;23.366;2024-03-08T03:09:47;2.70;;;1.73;;
40204;SDS011;26963;42.666;23.366;2024-03-08T03:12:12;3.65;;;2.00;;
40204;SDS011;26963;42.666;23.366;2024-03-08T03:14:39;3.67;;;2.10;;
40204;SDS011;26963;42.666;23.366;2024-03-08T03:17:05;2.72;;;1.70;;
40204;SDS011;26963;42.666;23.366;2024-03-08T03:19:30;2.22;;;1.33;;
40204;SDS011;26963;42.666;23.366;2024-03-08T03:21:56;1.20;;;1.10;;
40204;SDS011;26963;42.666;23.366;2024-03-08T03:24:23;2.08;;;1.70;;
40204;SDS011;26963;42.666;23.366;2024-03-08T03:26:48;2.75;;;1.73;;
40204;SDS011;26963;42.666;23.366;2024-03-08T03:29:15;1.55;;;1.25;;
40204;SDS011;26963;42.666;23.366;2024-03-08T03:31:42;2.03;;;1.20;;
40204;SDS011;26963;42.666;23.366;2024-03-08T03:34:12;1.98;;;1.30;;
40204;SDS011;26963;42.666;23.366;2024-03-08T03:36:38;1.33;;;1.10;;
40204;SDS011;26963;42.666;23.366;2024-03-08T03:39:08;2.10;;;1.40;;
40204;SDS011;26963;42.666;23.366;2024-03-08T03:41:41;1.63;;;1.20;;
40204;SDS011;26963;42.666;23.366;2024-03-08T03:44:11;1.52;;;1.10;;
40204;SDS011;26963;42.666;23.366;2024-03-08T03:46:36;1.45;;;1.00;;
40204;SDS011;26963;42.666;23.366;2024-03-08T03:49:02;2.20;;;1.33;;
40204;SDS011;26963;42.666;23.366;2024-03-08T03:51:28;2.33;;;1.40;;
40204;SDS011;26963;42.666;23.366;2024-03-08T03:53:55;2.90;;;1.38;;
40204;SDS011;26963;42.666;23.366;2024-03-08T03:56:26;1.65;;;1.33;;
40204;SDS011;26963;42.666;23.366;2024-03-08T03:58:52;3.40;;;1.20;;
40204;SDS011;26963;42.666;23.366;2024-03-08T04:01:17;1.92;;;1.02;;
40204;SDS011;26963;42.666;23.366;2024-03-08T04:03:44;1.83;;;1.25;;
40204;SDS011;26963;42.666;23.366;2024-03-08T04:06:10;2.95;;;1.45;;
40204;SDS011;26963;42.666;23.366;2024-03-08T04:08:35;1.50;;;1.30;;
40204;SDS011;26963;42.666;23.366;2024-03-08T04:11:01;5.20;;;2.65;;
40204;SDS011;26963;42.666;23.366;2024-03-08T04:13:27;2.30;;;1.63;;
40204;SDS011;26963;42.666;23.366;2024-03-08T04:15:53;4.53;;;1.80;;
40204;SDS011;26963;42.666;23.366;2024-03-08T04:18:19;2.00;;;1.48;;
40204;SDS011;26963;42.666;23.366;2024-03-08T04:20:44;2.30;;;1.40;;
40204;SDS011;26963;42.666;23.366;2024-03-08T04:23:10;2.83;;;1.60;;
40204;SDS011;26963;42.666;23.366;2024-03-08T04:25:36;1.42;;;1.33;;
40204;SDS011;26963;42.666;23.366;2024-03-08T04:28:01;2.60;;;1.42;;
40204;SDS011;26963;42.666;23.366;2024-03-08T04:30:27;2.03;;;1.25;;
40204;SDS011;26963;42.666;23.366;2024-03-08T04:32:53;2.70;;;1.50;;
40204;SDS011;26963;42.666;23.366;2024-03-08T04:35:19;1.48;;;1.30;;
40204;SDS011;26963;42.666;23.366;2024-03-08T04:37:45;1.48;;;1.33;;
40204;SDS011;26963;42.666;23.366;2024-03-08T04:40:11;2.13;;;1.50;;
40204;SDS011;26963;42.666;23.366;2024-03-08T04:42:37;2.15;;;1.63;;
40204;SDS011;26963;42.666;23.366;2024-03-08T04:45:05;3.10;;;1.70;;
40204;SDS011;26963;42.666;23.366;2024-03-08T04:47:33;1.65;;;1.30;;
40204;SDS011;26963;42.666;23.366;2024-03-08T04:49:58;2.65;;;1.50;;
40204;SDS011;26963;42.666;23.366;2024-03-08T04:52:24;2.05;;;1.50;;
40204;SDS011;26963;42.666;23.366;2024-03-08T04:55:00;2.63;;;1.48;;
40204;SDS011;26963;42.666;23.366;2024-03-08T04:57:25;2.45;;;1.67;;
40204;SDS011;26963;42.666;23.366;2024-03-08T04:59:51;2.08;;;1.70;;
40204;SDS011;26963;42.666;23.366;2024-03-08T05:02:16;3.10;;;1.52;;
40204;SDS011;26963;42.666;23.366;2024-03-08T05:04:43;2.05;;;1.60;;
40204;SDS011;26963;42.666;23.366;2024-03-08T05:07:08;2.03;;;1.40;;
40204;SDS011;26963;42.666;23.366;2024-03-08T05:09:35;2.42;;;1.70;;
40204;SDS011;26963;42.666;23.366;2024-03-08T05:12:01;2.35;;;1.73;;
40204;SDS011;26963;42.666;23.366;2024-03-08T05:14:27;2.58;;;1.58;;
40204;SDS011;26963;42.666;23.366;2024-03-08T05:16:52;3.60;;;1.92;;
40204;SDS011;26963;42.666;23.366;2024-03-08T05:19:18;3.20;;;1.92;;
40204;SDS011;26963;42.666;23.366;2024-03-08T05:21:49;4.72;;;3.22;;
40204;SDS011;26963;42.666;23.366;2024-03-08T05:24:15;3.80;;;2.50;;
40204;SDS011;26963;42.666;23.366;2024-03-08T05:26:42;5.35;;;3.03;;
40204;SDS011;26963;42.666;23.366;2024-03-08T05:29:08;5.60;;;3.47;;
40204;SDS011;26963;42.666;23.366;2024-03-08T05:31:47;8.70;;;5.80;;
40204;SDS011;26963;42.666;23.366;2024-03-08T05:34:17;7.82;;;4.63;;
40204;SDS011;26963;42.666;23.366;2024-03-08T05:36:45;7.88;;;5.55;;
40204;SDS011;26963;42.666;23.366;2024-03-08T05:39:16;8.40;;;5.78;;
40204;SDS011;26963;42.666;23.366;2024-03-08T05:41:45;8.05;;;5.47;;
40204;SDS011;26963;42.666;23.366;2024-03-08T05:44:12;9.55;;;5.68;;
40204;SDS011;26963;42.666;23.366;2024-03-08T05:46:38;7.93;;;5.03;;
40204;SDS011;26963;42.666;23.366;2024-03-08T05:49:04;6.93;;;4.97;;
40204;SDS011;26963;42.666;23.366;2024-03-08T05:51:31;7.68;;;4.55;;
40204;SDS011;26963;42.666;23.366;2024-03-08T05:54:01;8.13;;;5.75;;
40204;SDS011;26963;42.666;23.366;2024-03-08T05:56:35;7.93;;;6.07;;
40204;SDS011;26963;42.666;23.366;2024-03-08T05:59:01;10.88;;;7.07;;
40204;SDS011;26963;42.666;23.366;2024-03-08T06:01:27;11.25;;;7.30;;
40204;SDS011;26963;42.666;23.366;2024-03-08T06:03:54;12.18;;;8.52;;
40204;SDS011;26963;42.666;23.366;2024-03-08T06:06:24;10.82;;;6.82;;
40204;SDS011;26963;42.666;23.366;2024-03-08T06:08:50;12.07;;;9.40;;
40204;SDS011;26963;42.666;23.366;2024-03-08T06:11:16;10.50;;;7.82;;
40204;SDS011;26963;42.666;23.366;2024-03-08T06:13:43;12.63;;;8.52;;
40204;SDS011;26963;42.666;23.366;2024-03-08T06:16:09;14.50;;;9.07;;
40204;SDS011;26963;42.666;23.366;2024-03-08T06:18:35;14.38;;;10.15;;
40204;SDS011;26963;42.666;23.366;2024-03-08T06:21:12;17.35;;;12.02;;
40204;SDS011;26963;42.666;23.366;2024-03-08T06:23:38;12.00;;;8.02;;
40204;SDS011;26963;42.666;23.366;2024-03-08T06:26:04;12.10;;;8.23;;
40204;SDS011;26963;42.666;23.366;2024-03-08T06:28:30;10.43;;;7.93;;
40204;SDS011;26963;42.666;23.366;2024-03-08T06:30:58;12.70;;;9.07;;
40204;SDS011;26963;42.666;23.366;2024-03-08T06:33:24;12.48;;;8.98;;
40204;SDS011;26963;42.666;23.366;2024-03-08T06:35:54;12.68;;;9.52;;
40204;SDS011;26963;42.666;23.366;2024-03-08T06:38:25;13.43;;;8.00;;
40204;SDS011;26963;42.666;23.366;2024-03-08T06:40:52;13.57;;;9.27;;
40204;SDS011;26963;42.666;23.366;2024-03-08T06:43:18;13.18;;;9.65;;
40204;SDS011;26963;42.666;23.366;2024-03-08T06:46:02;15.70;;;11.48;;
40204;SDS011;26963;42.666;23.366;2024-03-08T06:48:29;13.13;;;9.90;;
40204;SDS011;26963;42.666;23.366;2024-03-08T06:50:54;10.05;;;7.32;;
40204;SDS011;26963;42.666;23.366;2024-03-08T06:53:24;12.68;;;9.45;;
40204;SDS011;26963;42.666;23.366;2024-03-08T06:55:50;13.07;;;9.20;;
40204;SDS011;26963;42.666;23.366;2024-03-08T06:58:16;8.32;;;6.05;;
40204;SDS011;26963;42.666;23.366;2024-03-08T07:00:41;8.73;;;6.18;;
40204;SDS011;26963;42.666;23.366;2024-03-08T07:03:08;11.05;;;7.80;;
40204;SDS011;26963;42.666;23.366;2024-03-08T07:05:37;9.90;;;7.78;;
40204;SDS011;26963;42.666;23.366;2024-03-08T07:08:03;8.43;;;6.03;;
40204;SDS011;26963;42.666;23.366;2024-03-08T07:10:29;8.20;;;5.13;;
40204;SDS011;26963;42.666;23.366;2024-03-08T07:12:54;10.13;;;7.10;;
40204;SDS011;26963;42.666;23.366;2024-03-08T07:15:20;7.70;;;5.53;;
40204;SDS011;26963;42.666;23.366;2024-03-08T07:17:46;9.18;;;5.15;;
40204;SDS011;26963;42.666;23.366;2024-03-08T07:20:12;10.15;;;8.05;;
40204;SDS011;26963;42.666;23.366;2024-03-08T07:22:41;6.93;;;5.07;;
40204;SDS011;26963;42.666;23.366;2024-03-08T07:25:06;7.50;;;5.63;;
40204;SDS011;26963;42.666;23.366;2024-03-08T07:27:33;8.15;;;5.30;;
40204;SDS011;26963;42.666;23.366;2024-03-08T07:30:00;7.45;;;5.40;;
40204;SDS011;26963;42.666;23.366;2024-03-08T07:32:26;8.15;;;5.93;;
40204;SDS011;26963;42.666;23.366;2024-03-08T07:34:54;8.85;;;6.88;;
40204;SDS011;26963;42.666;23.366;2024-03-08T07:37:20;8.10;;;5.55;;
40204;SDS011;26963;42.666;23.366;2024-03-08T07:39:46;9.38;;;5.53;;
40204;SDS011;26963;42.666;23.366;2024-03-08T07:42:12;9.27;;;4.82;;
40204;SDS011;26963;42.666;23.366;2024-03-08T07:44:38;17.00;;;6.88;;
40204;SDS011;26963;42.666;23.366;2024-03-08T07:47:04;7.25;;;4.85;;
40204;SDS011;26963;42.666;23.366;2024-03-08T07:49:29;11.60;;;7.30;;
40204;SDS011;26963;42.666;23.366;2024-03-08T07:51:56;8.60;;;6.40;;
40204;SDS011;26963;42.666;23.366;2024-03-08T07:54:23;8.00;;;5.82;;
40204;SDS011;26963;42.666;23.366;2024-03-08T07:56:48;9.23;;;5.43;;
40204;SDS011;26963;42.666;23.366;2024-03-08T07:59:16;11.48;;;6.75;;
40204;SDS011;26963;42.666;23.366;2024-03-08T08:01:41;10.55;;;6.72;;
40204;SDS011;26963;42.666;23.366;2024-03-08T08:04:09;9.25;;;5.72;;
40204;SDS011;26963;42.666;23.366;2024-03-08T08:06:40;8.00;;;4.50;;
40204;SDS011;26963;42.666;23.366;2024-03-08T08:09:08;7.68;;;5.10;;
40204;SDS011;26963;42.666;23.366;2024-03-08T08:11:53;8.73;;;5.95;;
40204;SDS011;26963;42.666;23.366;2024-03-08T08:14:20;7.60;;;4.13;;
40204;SDS011;26963;42.666;23.366;2024-03-08T08:16:46;5.95;;;4.35;;
40204;SDS011;26963;42.666;23.366;2024-03-08T08:19:14;8.05;;;4.95;;
40204;SDS011;26963;42.666;23.366;2024-03-08T08:21:41;7.03;;;4.40;;
40204;SDS011;26963;42.666;23.366;2024-03-08T08:24:07;5.30;;;3.72;;
40204;SDS011;26963;42.666;23.366;2024-03-08T08:26:32;7.68;;;4.75;;
40204;SDS011;26963;42.666;23.366;2024-03-08T08:28:59;9.45;;;6.78;;
40204;SDS011;26963;42.666;23.366;2024-03-08T08:31:25;7.95;;;6.10;;
40204;SDS011;26963;42.666;23.366;2024-03-08T08:33:51;5.78;;;3.90;;
40204;SDS011;26963;42.666;23.366;2024-03-08T08:36:23;5.57;;;4.03;;
40204;SDS011;26963;42.666;23.366;2024-03-08T08:38:51;6.68;;;3.88;;
40204;SDS011;26963;42.666;23.366;2024-03-08T08:41:20;7.97;;;4.22;;
40204;SDS011;26963;42.666;23.366;2024-03-08T08:43:47;5.18;;;3.42;;
40204;SDS011;26963;42.666;23.366;2024-03-08T08:46:17;5.30;;;3.80;;
40204;SDS011;26963;42.666;23.366;2024-03-08T08:48:44;5.57;;;3.47;;
40204;SDS011;26963;42.666;23.366;2024-03-08T08:51:12;5.43;;;3.38;;
40204;SDS011;26963;42.666;23.366;2024-03-08T08:53:38;5.53;;;3.78;;
40204;SDS011;26963;42.666;23.366;2024-03-08T08:56:13;5.57;;;3.30;;
40204;SDS011;26963;42.666;23.366;2024-03-08T08:58:39;3.83;;;3.00;;
40204;SDS011;26963;42.666;23.366;2024-03-08T09:01:08;6.10;;;4.05;;
40204;SDS011;26963;42.666;23.366;2024-03-08T09:03:37;6.53;;;4.22;;
40204;SDS011;26963;42.666;23.366;2024-03-08T09:06:06;8.15;;;4.85;;
40204;SDS011;26963;42.666;23.366;2024-03-08T09:08:35;5.30;;;4.05;;
40204;SDS011;26963;42.666;23.366;2024-03-08T09:11:01;5.53;;;3.63;;
40204;SDS011;26963;42.666;23.366;2024-03-08T09:13:27;4.68;;;3.33;;
40204;SDS011;26963;42.666;23.366;2024-03-08T09:15:53;3.75;;;2.80;;
40204;SDS011;26963;42.666;23.366;2024-03-08T09:18:18;5.68;;;3.30;;
40204;SDS011;26963;42.666;23.366;2024-03-08T09:20:44;4.50;;;3.00;;
40204;SDS011;26963;42.666;23.366;2024-03-08T09:23:11;6.75;;;4.68;;
40204;SDS011;26963;42.666;23.366;2024-03-08T09:25:36;5.80;;;3.58;;
40204;SDS011;26963;42.666;23.366;2024-03-08T09:28:02;5.63;;;3.90;;
40204;SDS011;26963;42.666;23.366;2024-03-08T09:30:28;4.20;;;3.05;;
40204;SDS011;26963;42.666;23.366;2024-03-08T09:32:54;6.40;;;4.40;;
40204;SDS011;26963;42.666;23.366;2024-03-08T09:35:19;6.60;;;5.00;;
40204;SDS011;26963;42.666;23.366;2024-03-08T09:37:45;6.43;;;3.03;;
40204;SDS011;26963;42.666;23.366;2024-03-08T09:40:13;3.45;;;2.50;;
40204;SDS011;26963;42.666;23.366;2024-03-08T09:42:43;10.35;;;3.80;;
40204;SDS011;26963;42.666;23.366;2024-03-08T09:45:10;5.03;;;3.45;;
40204;SDS011;26963;42.666;23.366;2024-03-08T09:47:43;5.00;;;3.50;;
40204;SDS011;26963;42.666;23.366;2024-03-08T09:50:10;4.03;;;3.00;;
40204;SDS011;26963;42.666;23.366;2024-03-08T09:52:40;3.97;;;2.70;;
40204;SDS011;26963;42.666;23.366;2024-03-08T09:55:09;5.53;;;3.22;;
40204;SDS011;26963;42.666;23.366;2024-03-08T09:57:39;5.80;;;3.30;;
40204;SDS011;26963;42.666;23.366;2024-03-08T10:00:05;3.67;;;2.70;;
40204;SDS011;26963;42.666;23.366;2024-03-08T10:02:46;3.47;;;2.53;;
40204;SDS011;26963;42.666;23.366;2024-03-08T10:05:13;11.70;;;4.53;;
40204;SDS011;26963;42.666;23.366;2024-03-08T10:07:42;7.95;;;4.10;;
40204;SDS011;26963;42.666;23.366;2024-03-08T10:10:07;8.10;;;2.80;;
40204;SDS011;26963;42.666;23.366;2024-03-08T10:12:36;5.03;;;3.28;;
40204;SDS011;26963;42.666;23.366;2024-03-08T10:15:02;7.78;;;3.67;;
40204;SDS011;26963;42.666;23.366;2024-03-08T10:17:28;4.60;;;3.33;;
40204;SDS011;26963;42.666;23.366;2024-03-08T10:19:57;4.13;;;2.20;;
40204;SDS011;26963;42.666;23.366;2024-03-08T10:22:25;3.90;;;2.75;;
40204;SDS011;26963;42.666;23.366;2024-03-08T10:24:51;4.00;;;2.50;;
40204;SDS011;26963;42.666;23.366;2024-03-08T10:27:17;4.45;;;2.38;;
40204;SDS011;26963;42.666;23.366;2024-03-08T10:29:43;3.95;;;2.45;;
40204;SDS011;26963;42.666;23.366;2024-03-08T10:32:13;4.60;;;2.55;;
40204;SDS011;26963;42.666;23.366;2024-03-08T10:34:38;5.45;;;3.20;;
40204;SDS011;26963;42.666;23.366;2024-03-08T10:37:04;4.22;;;2.38;;
40204;SDS011;26963;42.666;23.366;2024-03-08T10:39:34;4.38;;;2.65;;
40204;SDS011;26963;42.666;23.366;2024-03-08T10:42:04;3.88;;;2.70;;
40204;SDS011;26963;42.666;23.366;2024-03-08T10:44:43;3.63;;;2.50;;
40204;SDS011;26963;42.666;23.366;2024-03-08T10:47:33;3.00;;;2.13;;
40204;SDS011;26963;42.666;23.366;2024-03-08T10:52:51;4.20;;;2.72;;
40204;SDS011;26963;42.666;23.366;2024-03-08T10:55:17;3.35;;;2.38;;
40204;SDS011;26963;42.666;23.366;2024-03-08T10:57:45;5.50;;;3.00;;
40204;SDS011;26963;42.666;23.366;2024-03-08T11:00:13;4.53;;;2.70;;
40204;SDS011;26963;42.666;23.366;2024-03-08T11:02:42;3.70;;;2.50;;
40204;SDS011;26963;42.666;23.366;2024-03-08T11:08:19;3.75;;;2.47;;
40204;SDS011;26963;42.666;23.366;2024-03-08T11:16:09;3.95;;;2.13;;
40204;SDS011;26963;42.666;23.366;2024-03-08T11:18:36;3.42;;;2.20;;
40204;SDS011;26963;42.666;23.366;2024-03-08T11:21:06;5.75;;;2.38;;
40204;SDS011;26963;42.666;23.366;2024-03-08T11:23:37;3.47;;;2.03;;
40204;SDS011;26963;42.666;23.366;2024-03-08T11:26:26;3.03;;;2.30;;
40204;SDS011;26963;42.666;23.366;2024-03-08T11:28:51;5.68;;;2.83;;
40204;SDS011;26963;42.666;23.366;2024-03-08T11:33:46;13.88;;;8.05;;
40204;SDS011;26963;42.666;23.366;2024-03-08T11:36:19;5.80;;;2.42;;
40204;SDS011;26963;42.666;23.366;2024-03-08T11:38:47;3.42;;;1.88;;
40204;SDS011;26963;42.666;23.366;2024-03-08T11:41:22;4.03;;;2.00;;
40204;SDS011;26963;42.666;23.366;2024-03-08T11:43:49;2.50;;;1.70;;
40204;SDS011;26963;42.666;23.366;2024-03-08T11:46:26;3.55;;;1.98;;
40204;SDS011;26963;42.666;23.366;2024-03-08T11:48:54;4.47;;;1.80;;
40204;SDS011;26963;42.666;23.366;2024-03-08T11:51:21;4.85;;;1.73;;
40204;SDS011;26963;42.666;23.366;2024-03-08T11:53:48;4.97;;;1.88;;
40204;SDS011;26963;42.666;23.366;2024-03-08T11:56:15;4.75;;;2.75;;
40204;SDS011;26963;42.666;23.366;2024-03-08T11:58:41;3.97;;;2.45;;
40204;SDS011;26963;42.666;23.366;2024-03-08T12:01:17;4.95;;;2.72;;
40204;SDS011;26963;42.666;23.366;2024-03-08T12:03:43;4.10;;;2.28;;
40204;SDS011;26963;42.666;23.366;2024-03-08T12:06:09;2.83;;;1.92;;
40204;SDS011;26963;42.666;23.366;2024-03-08T12:08:35;3.97;;;1.85;;
40204;SDS011;26963;42.666;23.366;2024-03-08T12:11:03;3.40;;;1.80;;
40204;SDS011;26963;42.666;23.366;2024-03-08T12:13:30;4.35;;;1.95;;
40204;SDS011;26963;42.666;23.366;2024-03-08T12:15:57;4.53;;;1.98;;
40204;SDS011;26963;42.666;23.366;2024-03-08T12:18:32;2.60;;;1.70;;
40204;SDS011;26963;42.666;23.366;2024-03-08T12:21:06;3.28;;;1.95;;
40204;SDS011;26963;42.666;23.366;2024-03-08T12:23:36;4.10;;;2.10;;
40204;SDS011;26963;42.666;23.366;2024-03-08T12:26:14;5.70;;;2.58;;
40204;SDS011;26963;42.666;23.366;2024-03-08T12:28:41;2.67;;;1.85;;
40204;SDS011;26963;42.666;23.366;2024-03-08T12:31:12;3.03;;;1.73;;
40204;SDS011;26963;42.666;23.366;2024-03-08T12:33:52;3.28;;;1.48;;
40204;SDS011;26963;42.666;23.366;2024-03-08T12:36:19;3.95;;;1.70;;
40204;SDS011;26963;42.666;23.366;2024-03-08T12:38:48;4.28;;;2.22;;
40204;SDS011;26963;42.666;23.366;2024-03-08T12:41:18;2.92;;;2.13;;
40204;SDS011;26963;42.666;23.366;2024-03-08T12:43:44;3.38;;;2.10;;
40204;SDS011;26963;42.666;23.366;2024-03-08T12:46:20;6.63;;;3.90;;
40204;SDS011;26963;42.666;23.366;2024-03-08T12:48:51;6.55;;;3.67;;
40204;SDS011;26963;42.666;23.366;2024-03-08T12:51:19;3.83;;;2.50;;
40204;SDS011;26963;42.666;23.366;2024-03-08T12:53:46;3.22;;;2.20;;
40204;SDS011;26963;42.666;23.366;2024-03-08T12:56:34;3.40;;;2.20;;
40204;SDS011;26963;42.666;23.366;2024-03-08T12:58:59;2.70;;;1.90;;
40204;SDS011;26963;42.666;23.366;2024-03-08T13:01:26;4.60;;;2.22;;
40204;SDS011;26963;42.666;23.366;2024-03-08T13:03:52;2.90;;;1.98;;
40204;SDS011;26963;42.666;23.366;2024-03-08T13:06:21;2.95;;;2.13;;
40204;SDS011;26963;42.666;23.366;2024-03-08T13:08:52;2.65;;;1.83;;
40204;SDS011;26963;42.666;23.366;2024-03-08T13:11:21;4.22;;;1.80;;
40204;SDS011;26963;42.666;23.366;2024-03-08T13:13:48;2.45;;;1.80;;
40204;SDS011;26963;42.666;23.366;2024-03-08T13:16:15;2.42;;;1.70;;
40204;SDS011;26963;42.666;23.366;2024-03-08T13:18:43;3.35;;;1.73;;
40204;SDS011;26963;42.666;23.366;2024-03-08T13:21:12;3.47;;;1.80;;
40204;SDS011;26963;42.666;23.366;2024-03-08T13:23:40;3.30;;;2.05;;
40204;SDS011;26963;42.666;23.366;2024-03-08T13:26:06;5.97;;;1.88;;
40204;SDS011;26963;42.666;23.366;2024-03-08T13:28:33;4.50;;;1.98;;
40204;SDS011;26963;42.666;23.366;2024-03-08T13:31:05;4.53;;;2.00;;
40204;SDS011;26963;42.666;23.366;2024-03-08T13:33:35;5.97;;;2.33;;
40204;SDS011;26963;42.666;23.366;2024-03-08T13:36:11;4.18;;;2.10;;
40204;SDS011;26963;42.666;23.366;2024-03-08T13:38:41;3.35;;;2.20;;
40204;SDS011;26963;42.666;23.366;2024-03-08T13:41:10;3.47;;;2.35;;
40204;SDS011;26963;42.666;23.366;2024-03-08T13:43:37;3.65;;;1.73;;
40204;SDS011;26963;42.666;23.366;2024-03-08T13:46:05;3.22;;;1.65;;
40204;SDS011;26963;42.666;23.366;2024-03-08T13:48:32;4.03;;;2.03;;
40204;SDS011;26963;42.666;23.366;2024-03-08T13:50:58;3.45;;;2.10;;
40204;SDS011;26963;42.666;23.366;2024-03-08T13:53:43;2.25;;;1.70;;
40204;SDS011;26963;42.666;23.366;2024-03-08T13:56:09;2.92;;;1.85;;
40204;SDS011;26963;42.666;23.366;2024-03-08T13:58:35;4.15;;;1.80;;
40204;SDS011;26963;42.666;23.366;2024-03-08T14:01:01;3.58;;;2.28;;
40204;SDS011;26963;42.666;23.366;2024-03-08T14:03:28;4.05;;;2.58;;
40204;SDS011;26963;42.666;23.366;2024-03-08T14:05:54;4.50;;;2.08;;
40204;SDS011;26963;42.666;23.366;2024-03-08T14:08:23;4.05;;;2.13;;
40204;SDS011;26963;42.666;23.366;2024-03-08T14:10:49;4.60;;;2.38;;
40204;SDS011;26963;42.666;23.366;2024-03-08T14:13:17;3.13;;;1.88;;
40204;SDS011;26963;42.666;23.366;2024-03-08T14:15:44;2.55;;;1.85;;
40204;SDS011;26963;42.666;23.366;2024-03-08T14:18:11;4.72;;;2.17;;
40204;SDS011;26963;42.666;23.366;2024-03-08T14:20:38;3.72;;;2.30;;
40204;SDS011;26963;42.666;23.366;2024-03-08T14:23:04;4.63;;;2.60;;
40204;SDS011;26963;42.666;23.366;2024-03-08T14:25:33;6.05;;;2.40;;
40204;SDS011;26963;42.666;23.366;2024-03-08T14:27:59;9.55;;;2.80;;
40204;SDS011;26963;42.666;23.366;2024-03-08T14:30:29;3.60;;;2.35;;
40204;SDS011;26963;42.666;23.366;2024-03-08T14:33:01;6.45;;;3.20;;
40204;SDS011;26963;42.666;23.366;2024-03-08T14:35:27;4.60;;;2.60;;
40204;SDS011;26963;42.666;23.366;2024-03-08T14:37:55;4.05;;;2.63;;
40204;SDS011;26963;42.666;23.366;2024-03-08T14:40:24;5.88;;;2.83;;
40204;SDS011;26963;42.666;23.366;2024-03-08T14:42:51;4.50;;;2.67;;
40204;SDS011;26963;42.666;23.366;2024-03-08T14:45:17;4.28;;;2.88;;
40204;SDS011;26963;42.666;23.366;2024-03-08T14:47:48;5.85;;;3.60;;
40204;SDS011;26963;42.666;23.366;2024-03-08T14:52:43;5.82;;;2.67;;
40204;SDS011;26963;42.666;23.366;2024-03-08T14:55:09;5.15;;;3.33;;